sensor_id;sensor_type;location;lat;lon;timestamp;pressure;altitude;pressure_sealevel;temperature;humidity
11985;BME280;6052;53.246;10.368;2024-01-16T00:00:20;99660.94;;;2.31;100.00
11985;BME280;6052;53.246;10.368;2024-01-16T00:02:52;99651.84;;;2.08;100.00
11985;BME280;6052;53.246;10.368;2024-01-16T00:05:21;99661.81;;;2.12;100.00
11985;BME280;6052;53.246;10.368;2024-01-16T00:07:51;99663.22;;;2.15;100.00
11985;BME280;6052;53.246;10.368;2024-01-16T00:10:21;99669.78;;;1.92;100.00
11985;BME280;6052;53.246;10.368;2024-01-16T00:12:50;99664.63;;;2.17;100.00
11985;BME280;6052;53.246;10.368;2024-01-16T00:15:21;99659.78;;;2.08;100.00
11985;BME280;6052;53.246;10.368;2024-01-16T00:17:53;99675.50;;;1.96;100.00
11985;BME280;6052;53.246;10.368;2024-01-16T00:20:22;99682.41;;;1.91;100.00
11985;BME280;6052;53.246;10.368;2024-01-16T00:22:52;99674.91;;;1.75;100.00
11985;BME280;6052;53.246;10.368;2024-01-16T00:25:22;99680.59;;;1.72;100.00
11985;BME280;6052;53.246;10.368;2024-01-16T00:27:52;99679.19;;;1.56;100.00
11985;BME280;6052;53.246;10.368;2024-01-16T00:30:21;99685.50;;;1.62;100.00
11985;BME280;6052;53.246;10.368;2024-01-16T00:32:53;99693.63;;;1.80;100.00
11985;BME280;6052;53.246;10.368;2024-01-16T00:35:23;99696.84;;;1.95;100.00
11985;BME280;6052;53.246;10.368;2024-01-16T00:37:53;99715.50;;;2.26;100.00
11985;BME280;6052;53.246;10.368;2024-01-16T00:40:22;99701.09;;;2.09;100.00
11985;BME280;6052;53.246;10.368;2024-01-16T00:42:52;99709.00;;;2.22;100.00
11985;BME280;6052;53.246;10.368;2024-01-16T00:45:22;99711.63;;;2.35;100.00
11985;BME280;6052;53.246;10.368;2024-01-16T00:47:54;99709.81;;;2.22;100.00
11985;BME280;6052;53.246;10.368;2024-01-16T00:50:24;99718.78;;;2.21;100.00
11985;BME280;6052;53.246;10.368;2024-01-16T00:52:54;99725.97;;;1.95;100.00
11985;BME280;6052;53.246;10.368;2024-01-16T00:55:23;99730.41;;;2.14;100.00
11985;BME280;6052;53.246;10.368;2024-01-16T00:57:53;99738.47;;;2.45;100.00
11985;BME280;6052;53.246;10.368;2024-01-16T01:00:22;99737.84;;;2.49;100.00
11985;BME280;6052;53.246;10.368;2024-01-16T01:02:54;99746.03;;;2.28;100.00
11985;BME280;6052;53.246;10.368;2024-01-16T01:05:25;99749.25;;;2.50;100.00
11985;BME280;6052;53.246;10.368;2024-01-16T01:07:55;99748.66;;;2.41;100.00
11985;BME280;6052;53.246;10.368;2024-01-16T01:10:25;99749.06;;;2.38;100.00
11985;BME280;6052;53.246;10.368;2024-01-16T01:12:54;99755.38;;;2.37;100.00
11985;BME280;6052;53.246;10.368;2024-01-16T01:15:24;99758.50;;;2.08;100.00
11985;BME280;6052;53.246;10.368;2024-01-16T01:17:56;99763.53;;;2.42;100.00
11985;BME280;6052;53.246;10.368;2024-01-16T01:20:26;99763.13;;;2.32;100.00
11985;BME280;6052;53.246;10.368;2024-01-16T01:22:55;99761.13;;;2.28;100.00
11985;BME280;6052;53.246;10.368;2024-01-16T01:25:25;99770.25;;;2.38;100.00
11985;BME280;6052;53.246;10.368;2024-01-16T01:27:54;99772.94;;;2.19;100.00
11985;BME280;6052;53.246;10.368;2024-01-16T01:30:24;99777.84;;;1.70;100.00
11985;BME280;6052;53.246;10.368;2024-01-16T01:32:56;99784.56;;;1.92;100.00
11985;BME280;6052;53.246;10.368;2024-01-16T01:35:26;99786.56;;;1.70;100.00
11985;BME280;6052;53.246;10.368;2024-01-16T01:37:55;99789.63;;;1.87;100.00
11985;BME280;6052;53.246;10.368;2024-01-16T01:40:25;99790.88;;;1.84;100.00
11985;BME280;6052;53.246;10.368;2024-01-16T01:42:54;99797.78;;;2.05;100.00
11985;BME280;6052;53.246;10.368;2024-01-16T01:45:24;99798.00;;;2.23;100.00
11985;BME280;6052;53.246;10.368;2024-01-16T01:47:56;99798.59;;;2.12;100.00
11985;BME280;6052;53.246;10.368;2024-01-16T01:50:26;99806.53;;;2.12;100.00
11985;BME280;6052;53.246;10.368;2024-01-16T01:52:55;99804.69;;;2.25;100.00
11985;BME280;6052;53.246;10.368;2024-01-16T01:55:25;99805.53;;;2.13;100.00
11985;BME280;6052;53.246;10.368;2024-01-16T01:57:55;99806.53;;;2.25;100.00
11985;BME280;6052;53.246;10.368;2024-01-16T02:00:26;99817.53;;;1.70;100.00
11985;BME280;6052;53.246;10.368;2024-01-16T02:02:59;99821.59;;;1.92;100.00
11985;BME280;6052;53.246;10.368;2024-01-16T02:05:29;99813.06;;;1.96;100.00
11985;BME280;6052;53.246;10.368;2024-01-16T02:07:59;99825.28;;;2.04;100.00
11985;BME280;6052;53.246;10.368;2024-01-16T02:10:29;99828.31;;;2.20;100.00
11985;BME280;6052;53.246;10.368;2024-01-16T02:12:59;99837.06;;;1.95;100.00
11985;BME280;6052;53.246;10.368;2024-01-16T02:15:29;99828.13;;;2.15;100.00
11985;BME280;6052;53.246;10.368;2024-01-16T02:18:01;99831.16;;;2.06;100.00
11985;BME280;6052;53.246;10.368;2024-01-16T02:20:31;99833.63;;;2.07;100.00
11985;BME280;6052;53.246;10.368;2024-01-16T02:23:03;99829.13;;;2.14;100.00
11985;BME280;6052;53.246;10.368;2024-01-16T02:25:35;99836.06;;;2.09;100.00
11985;BME280;6052;53.246;10.368;2024-01-16T02:28:05;99844.00;;;2.02;100.00
11985;BME280;6052;53.246;10.368;2024-01-16T02:30:35;99848.25;;;1.97;100.00
11985;BME280;6052;53.246;10.368;2024-01-16T02:33:05;99854.38;;;1.97;100.00
11985;BME280;6052;53.246;10.368;2024-01-16T02:35:35;99858.63;;;1.92;100.00
11985;BME280;6052;53.246;10.368;2024-01-16T02:38:05;99847.84;;;1.87;100.00
11985;BME280;6052;53.246;10.368;2024-01-16T02:40:38;99853.53;;;1.90;100.00
11985;BME280;6052;53.246;10.368;2024-01-16T02:43:07;99862.28;;;1.84;100.00
11985;BME280;6052;53.246;10.368;2024-01-16T02:45:37;99873.91;;;1.90;100.00
11985;BME280;6052;53.246;10.368;2024-01-16T02:48:07;99869.22;;;1.79;100.00
11985;BME280;6052;53.246;10.368;2024-01-16T02:50:36;99873.91;;;1.96;100.00
11985;BME280;6052;53.246;10.368;2024-01-16T02:53:06;99883.84;;;1.88;100.00
11985;BME280;6052;53.246;10.368;2024-01-16T02:55:38;99886.72;;;1.86;100.00
11985;BME280;6052;53.246;10.368;2024-01-16T02:58:07;99888.13;;;1.82;100.00
11985;BME280;6052;53.246;10.368;2024-01-16T03:00:37;99887.50;;;1.87;100.00
11985;BME280;6052;53.246;10.368;2024-01-16T03:03:07;99877.75;;;1.81;100.00
11985;BME280;6052;53.246;10.368;2024-01-16T03:05:36;99882.84;;;1.82;100.00
11985;BME280;6052;53.246;10.368;2024-01-16T03:08:06;99873.72;;;1.98;100.00
11985;BME280;6052;53.246;10.368;2024-01-16T03:10:39;99867.81;;;2.02;100.00
11985;BME280;6052;53.246;10.368;2024-01-16T03:13:09;99865.38;;;2.20;100.00
11985;BME280;6052;53.246;10.368;2024-01-16T03:15:38;99870.66;;;2.14;100.00
11985;BME280;6052;53.246;10.368;2024-01-16T03:18:08;99868.59;;;2.09;100.00
11985;BME280;6052;53.246;10.368;2024-01-16T03:20:38;99875.75;;;2.22;100.00
11985;BME280;6052;53.246;10.368;2024-01-16T03:23:08;99890.19;;;2.06;100.00
11985;BME280;6052;53.246;10.368;2024-01-16T03:25:41;99885.72;;;2.13;100.00
11985;BME280;6052;53.246;10.368;2024-01-16T03:28:10;99884.50;;;2.09;100.00
11985;BME280;6052;53.246;10.368;2024-01-16T03:30:41;99876.97;;;2.26;100.00
11985;BME280;6052;53.246;10.368;2024-01-16T03:33:10;99890.00;;;2.08;100.00
11985;BME280;6052;53.246;10.368;2024-01-16T03:35:40;99884.50;;;2.22;100.00
11985;BME280;6052;53.246;10.368;2024-01-16T03:38:10;99885.72;;;2.13;100.00
11985;BME280;6052;53.246;10.368;2024-01-16T03:40:45;99885.91;;;2.12;100.00
11985;BME280;6052;53.246;10.368;2024-01-16T03:43:14;99872.06;;;1.97;100.00
11985;BME280;6052;53.246;10.368;2024-01-16T03:45:44;99876.56;;;2.16;100.00
11985;BME280;6052;53.246;10.368;2024-01-16T03:48:14;99870.22;;;1.91;100.00
11985;BME280;6052;53.246;10.368;2024-01-16T03:50:44;99872.69;;;1.92;100.00
11985;BME280;6052;53.246;10.368;2024-01-16T03:53:14;99873.50;;;2.06;100.00
11985;BME280;6052;53.246;10.368;2024-01-16T03:55:46;99868.22;;;2.12;100.00
11985;BME280;6052;53.246;10.368;2024-01-16T03:58:16;99872.06;;;1.90;100.00
11985;BME280;6052;53.246;10.368;2024-01-16T04:00:46;99881.19;;;1.88;100.00
11985;BME280;6052;53.246;10.368;2024-01-16T04:03:17;99888.53;;;1.79;100.00
11985;BME280;6052;53.246;10.368;2024-01-16T04:05:47;99889.75;;;1.83;100.00
11985;BME280;6052;53.246;10.368;2024-01-16T04:08:17;99900.09;;;1.59;100.00
11985;BME280;6052;53.246;10.368;2024-01-16T04:10:49;99891.72;;;1.62;100.00
11985;BME280;6052;53.246;10.368;2024-01-16T04:13:19;99889.91;;;1.62;100.00
11985;BME280;6052;53.246;10.368;2024-01-16T04:15:48;99890.31;;;1.59;100.00
11985;BME280;6052;53.246;10.368;2024-01-16T04:18:19;99882.59;;;1.71;100.00
11985;BME280;6052;53.246;10.368;2024-01-16T04:20:48;99876.09;;;1.67;100.00
11985;BME280;6052;53.246;10.368;2024-01-16T04:23:18;99872.44;;;1.74;100.00
11985;BME280;6052;53.246;10.368;2024-01-16T04:25:50;99864.13;;;1.84;100.00
11985;BME280;6052;53.246;10.368;2024-01-16T04:28:20;99873.06;;;1.83;100.00
11985;BME280;6052;53.246;10.368;2024-01-16T04:30:50;99874.06;;;1.62;100.00
11985;BME280;6052;53.246;10.368;2024-01-16T04:33:20;99882.41;;;1.85;100.00
11985;BME280;6052;53.246;10.368;2024-01-16T04:35:49;99882.19;;;1.61;100.00
11985;BME280;6052;53.246;10.368;2024-01-16T04:38:19;99876.06;;;1.60;100.00
11985;BME280;6052;53.246;10.368;2024-01-16T04:40:53;99882.56;;;1.58;100.00
11985;BME280;6052;53.246;10.368;2024-01-16T04:43:22;99892.13;;;1.52;100.00
11985;BME280;6052;53.246;10.368;2024-01-16T04:45:52;99886.06;;;1.77;100.00
11985;BME280;6052;53.246;10.368;2024-01-16T04:48:21;99889.13;;;1.75;100.00
11985;BME280;6052;53.246;10.368;2024-01-16T04:50:51;99891.31;;;1.52;100.00
11985;BME280;6052;53.246;10.368;2024-01-16T04:53:21;99892.16;;;1.65;100.00
11985;BME280;6052;53.246;10.368;2024-01-16T04:55:53;99889.94;;;1.69;100.00
11985;BME280;6052;53.246;10.368;2024-01-16T04:58:23;99889.31;;;1.73;100.00
11985;BME280;6052;53.246;10.368;2024-01-16T05:00:53;99888.50;;;1.66;100.00
11985;BME280;6052;53.246;10.368;2024-01-16T05:03:23;99899.03;;;1.53;100.00
11985;BME280;6052;53.246;10.368;2024-01-16T05:05:53;99898.44;;;1.58;100.00
11985;BME280;6052;53.246;10.368;2024-01-16T05:08:23;99891.94;;;1.60;100.00
11985;BME280;6052;53.246;10.368;2024-01-16T05:10:56;99888.50;;;1.66;100.00
11985;BME280;6052;53.246;10.368;2024-01-16T05:13:26;99888.69;;;1.65;100.00
11985;BME280;6052;53.246;10.368;2024-01-16T05:15:55;99886.88;;;1.59;100.00
11985;BME280;6052;53.246;10.368;2024-01-16T05:18:25;99883.59;;;1.57;100.00
11985;BME280;6052;53.246;10.368;2024-01-16T05:20:55;99880.19;;;1.82;100.00
11985;BME280;6052;53.246;10.368;2024-01-16T05:23:26;99878.50;;;1.55;100.00
11985;BME280;6052;53.246;10.368;2024-01-16T05:25:58;99894.56;;;1.60;100.00
11985;BME280;6052;53.246;10.368;2024-01-16T05:28:28;99893.69;;;1.40;100.00
11985;BME280;6052;53.246;10.368;2024-01-16T05:30:57;99890.69;;;1.50;100.00
11985;BME280;6052;53.246;10.368;2024-01-16T05:33:27;99901.00;;;1.32;100.00
11985;BME280;6052;53.246;10.368;2024-01-16T05:35:57;99895.09;;;1.30;100.00
11985;BME280;6052;53.246;10.368;2024-01-16T05:38:27;99881.56;;;1.52;100.00
11985;BME280;6052;53.246;10.368;2024-01-16T05:40:59;99872.78;;;1.52;100.00
11985;BME280;6052;53.246;10.368;2024-01-16T05:43:30;99886.22;;;1.57;100.00
11985;BME280;6052;53.246;10.368;2024-01-16T05:46:00;99888.81;;;1.43;100.00
11985;BME280;6052;53.246;10.368;2024-01-16T05:48:30;99888.00;;;1.37;100.00
11985;BME280;6052;53.246;10.368;2024-01-16T05:50:59;99869.72;;;1.42;100.00
11985;BME280;6052;53.246;10.368;2024-01-16T05:53:29;99878.47;;;1.42;100.00
11985;BME280;6052;53.246;10.368;2024-01-16T05:56:01;99875.84;;;1.55;100.00
11985;BME280;6052;53.246;10.368;2024-01-16T05:58:31;99895.31;;;1.41;100.00
11985;BME280;6052;53.246;10.368;2024-01-16T06:01:05;99893.31;;;1.43;100.00
11985;BME280;6052;53.246;10.368;2024-01-16T06:03:35;99902.81;;;1.31;100.00
11985;BME280;6052;53.246;10.368;2024-01-16T06:06:05;99904.28;;;1.40;100.00
11985;BME280;6052;53.246;10.368;2024-01-16T06:08:34;99899.56;;;1.29;100.00
11985;BME280;6052;53.246;10.368;2024-01-16T06:11:07;99901.22;;;1.37;100.00
11985;BME280;6052;53.246;10.368;2024-01-16T06:13:40;99909.97;;;1.37;100.00
11985;BME280;6052;53.246;10.368;2024-01-16T06:16:10;99901.38;;;1.28;100.00
11985;BME280;6052;53.246;10.368;2024-01-16T06:18:40;99904.22;;;1.27;100.00
11985;BME280;6052;53.246;10.368;2024-01-16T06:21:10;99902.06;;;1.50;100.00
11985;BME280;6052;53.246;10.368;2024-01-16T06:23:39;99899.22;;;1.52;100.00
11985;BME280;6052;53.246;10.368;2024-01-16T06:26:12;99903.09;;;1.49;100.00
11985;BME280;6052;53.246;10.368;2024-01-16T06:28:41;99891.06;;;1.47;100.00
11985;BME280;6052;53.246;10.368;2024-01-16T06:31:11;99881.13;;;1.42;100.00
11985;BME280;6052;53.246;10.368;2024-01-16T06:33:41;99886.66;;;1.67;100.00
11985;BME280;6052;53.246;10.368;2024-01-16T06:36:11;99889.47;;;1.52;100.00
11985;BME280;6052;53.246;10.368;2024-01-16T06:38:40;99894.13;;;1.50;100.00
11985;BME280;6052;53.246;10.368;2024-01-16T06:41:13;99898.00;;;1.48;100.00
11985;BME280;6052;53.246;10.368;2024-01-16T06:43:43;99896.94;;;1.36;100.00
11985;BME280;6052;53.246;10.368;2024-01-16T06:46:13;99896.84;;;1.63;100.00
11985;BME280;6052;53.246;10.368;2024-01-16T06:48:43;99916.56;;;1.61;100.00
11985;BME280;6052;53.246;10.368;2024-01-16T06:51:12;99910.59;;;1.46;100.00
11985;BME280;6052;53.246;10.368;2024-01-16T06:53:42;99921.59;;;1.49;100.00
11985;BME280;6052;53.246;10.368;2024-01-16T06:56:14;99912.31;;;1.66;100.00
11985;BME280;6052;53.246;10.368;2024-01-16T06:58:44;99912.25;;;1.53;100.00
11985;BME280;6052;53.246;10.368;2024-01-16T07:01:14;99914.50;;;1.50;100.00
11985;BME280;6052;53.246;10.368;2024-01-16T07:03:43;99913.84;;;1.48;100.00
11985;BME280;6052;53.246;10.368;2024-01-16T07:06:13;99913.22;;;1.39;100.00
11985;BME280;6052;53.246;10.368;2024-01-16T07:08:43;99911.66;;;1.58;100.00
11985;BME280;6052;53.246;10.368;2024-01-16T07:11:15;99912.06;;;1.55;100.00
11985;BME280;6052;53.246;10.368;2024-01-16T07:13:45;99905.16;;;1.67;100.00
11985;BME280;6052;53.246;10.368;2024-01-16T07:16:15;99906.34;;;1.51;100.00
11985;BME280;6052;53.246;10.368;2024-01-16T07:18:45;99910.59;;;1.46;100.00
11985;BME280;6052;53.246;10.368;2024-01-16T07:21:16;99915.94;;;1.65;100.00
11985;BME280;6052;53.246;10.368;2024-01-16T07:23:47;99905.97;;;1.61;100.00
11985;BME280;6052;53.246;10.368;2024-01-16T07:26:20;99909.84;;;1.65;100.00
11985;BME280;6052;53.246;10.368;2024-01-16T07:28:51;99915.38;;;1.70;100.00
11985;BME280;6052;53.246;10.368;2024-01-16T07:31:21;99911.88;;;1.63;100.00
11985;BME280;6052;53.246;10.368;2024-01-16T07:33:50;99914.91;;;1.53;100.00
11985;BME280;6052;53.246;10.368;2024-01-16T07:36:20;99908.00;;;1.59;100.00
11985;BME280;6052;53.246;10.368;2024-01-16T07:38:50;99907.34;;;1.50;100.00
11985;BME280;6052;53.246;10.368;2024-01-16T07:41:22;99906.84;;;1.81;100.00
11985;BME280;6052;53.246;10.368;2024-01-16T07:43:52;99914.28;;;1.58;100.00
11985;BME280;6052;53.246;10.368;2024-01-16T07:46:21;99914.09;;;1.59;100.00
11985;BME280;6052;53.246;10.368;2024-01-16T07:48:52;99915.94;;;1.59;100.00
11985;BME280;6052;53.246;10.368;2024-01-16T07:51:22;99916.59;;;1.74;100.00
11985;BME280;6052;53.246;10.368;2024-01-16T07:54:04;99923.50;;;1.75;100.00
11985;BME280;6052;53.246;10.368;2024-01-16T07:56:37;99926.31;;;1.67;100.00
11985;BME280;6052;53.246;10.368;2024-01-16T07:59:07;99932.47;;;1.80;100.00
11985;BME280;6052;53.246;10.368;2024-01-16T08:01:37;99923.16;;;1.97;100.00
11985;BME280;6052;53.246;10.368;2024-01-16T08:04:06;99928.53;;;1.57;100.00
11985;BME280;6052;53.246;10.368;2024-01-16T08:06:36;99924.53;;;1.74;100.00
11985;BME280;6052;53.246;10.368;2024-01-16T08:09:06;99914.59;;;1.82;100.00
11985;BME280;6052;53.246;10.368;2024-01-16T08:11:40;99917.22;;;1.76;100.00
11985;BME280;6052;53.246;10.368;2024-01-16T08:14:10;99915.50;;;1.55;100.00
11985;BME280;6052;53.246;10.368;2024-01-16T08:16:40;99937.25;;;1.51;100.00
11985;BME280;6052;53.246;10.368;2024-01-16T08:19:10;99925.34;;;1.74;100.00
11985;BME280;6052;53.246;10.368;2024-01-16T08:21:39;99931.03;;;1.77;100.00
11985;BME280;6052;53.246;10.368;2024-01-16T08:24:09;99928.81;;;1.88;100.00
11985;BME280;6052;53.246;10.368;2024-01-16T08:26:41;99931.81;;;1.65;100.00
11985;BME280;6052;53.246;10.368;2024-01-16T08:29:11;99929.25;;;1.85;100.00
11985;BME280;6052;53.246;10.368;2024-01-16T08:31:41;99934.09;;;1.88;100.00
11985;BME280;6052;53.246;10.368;2024-01-16T08:34:10;99937.75;;;1.74;100.00
11985;BME280;6052;53.246;10.368;2024-01-16T08:36:40;99943.00;;;1.61;100.00
11985;BME280;6052;53.246;10.368;2024-01-16T08:39:10;99949.53;;;1.65;100.00
11985;BME280;6052;53.246;10.368;2024-01-16T08:41:43;99955.63;;;1.59;100.00
11985;BME280;6052;53.246;10.368;2024-01-16T08:44:12;99938.38;;;1.76;100.00
11985;BME280;6052;53.246;10.368;2024-01-16T08:46:42;99951.19;;;1.79;100.00
11985;BME280;6052;53.246;10.368;2024-01-16T08:49:13;99945.88;;;1.72;100.00
11985;BME280;6052;53.246;10.368;2024-01-16T08:51:46;99946.13;;;1.84;100.00
11985;BME280;6052;53.246;10.368;2024-01-16T08:54:16;99954.63;;;1.66;100.00
11985;BME280;6052;53.246;10.368;2024-01-16T08:56:48;99951.97;;;1.73;100.00
11985;BME280;6052;53.246;10.368;2024-01-16T08:59:18;99953.47;;;1.88;100.00
11985;BME280;6052;53.246;10.368;2024-01-16T09:01:48;99950.41;;;1.85;100.00
11985;BME280;6052;53.246;10.368;2024-01-16T09:04:18;99957.47;;;1.77;100.00
11985;BME280;6052;53.246;10.368;2024-01-16T09:06:48;99956.28;;;1.80;100.00
11985;BME280;6052;53.246;10.368;2024-01-16T09:09:19;99946.56;;;1.94;100.00
11985;BME280;6052;53.246;10.368;2024-01-16T09:11:51;99939.03;;;1.97;100.00
11985;BME280;6052;53.246;10.368;2024-01-16T09:14:21;99950.19;;;1.80;100.00
11985;BME280;6052;53.246;10.368;2024-01-16T09:16:50;99938.22;;;1.97;100.00
11985;BME280;6052;53.246;10.368;2024-01-16T09:19:21;99941.06;;;2.02;100.00
11985;BME280;6052;53.246;10.368;2024-01-16T09:21:52;99948.56;;;1.85;100.00
11985;BME280;6052;53.246;10.368;2024-01-16T09:24:22;99945.72;;;1.87;100.00
11985;BME280;6052;53.246;10.368;2024-01-16T09:26:54;99938.63;;;1.94;100.00
11985;BME280;6052;53.246;10.368;2024-01-16T09:29:25;99937.59;;;1.88;100.00
11985;BME280;6052;53.246;10.368;2024-01-16T09:31:54;99954.28;;;2.02;100.00
11985;BME280;6052;53.246;10.368;2024-01-16T09:34:24;99968.88;;;1.78;100.00
11985;BME280;6052;53.246;10.368;2024-01-16T09:36:54;99963.44;;;1.86;100.00
11985;BME280;6052;53.246;10.368;2024-01-16T09:39:25;99961.78;;;1.79;100.00
11985;BME280;6052;53.246;10.368;2024-01-16T09:42:00;99947.94;;;1.77;100.00
11985;BME280;6052;53.246;10.368;2024-01-16T09:44:31;99945.31;;;1.83;100.00
11985;BME280;6052;53.246;10.368;2024-01-16T09:47:01;99945.47;;;1.75;100.00
11985;BME280;6052;53.246;10.368;2024-01-16T09:49:31;99947.94;;;1.83;100.00
11985;BME280;6052;53.246;10.368;2024-01-16T09:52:00;99948.97;;;1.95;100.00
11985;BME280;6052;53.246;10.368;2024-01-16T09:54:30;99952.66;;;1.94;100.00
11985;BME280;6052;53.246;10.368;2024-01-16T09:57:06;99937.81;;;2.00;100.00
11985;BME280;6052;53.246;10.368;2024-01-16T09:59:37;99948.78;;;1.84;100.00
11985;BME280;6052;53.246;10.368;2024-01-16T10:02:10;99950.22;;;1.86;100.00
11985;BME280;6052;53.246;10.368;2024-01-16T10:04:40;99948.56;;;1.92;100.00
11985;BME280;6052;53.246;10.368;2024-01-16T10:07:12;99947.56;;;1.86;100.00
11985;BME280;6052;53.246;10.368;2024-01-16T10:09:43;99947.59;;;2.06;100.00
11985;BME280;6052;53.246;10.368;2024-01-16T10:12:16;99943.09;;;2.00;100.00
11985;BME280;6052;53.246;10.368;2024-01-16T10:14:46;99953.72;;;2.06;100.00
11985;BME280;6052;53.246;10.368;2024-01-16T10:17:17;99954.72;;;2.05;100.00
11985;BME280;6052;53.246;10.368;2024-01-16T10:19:48;99946.59;;;2.00;100.00
11985;BME280;6052;53.246;10.368;2024-01-16T10:22:20;99956.38;;;2.13;100.00
11985;BME280;6052;53.246;10.368;2024-01-16T10:25:04;99954.69;;;1.92;100.00
11985;BME280;6052;53.246;10.368;2024-01-16T10:27:38;99959.97;;;1.92;100.00
11985;BME280;6052;53.246;10.368;2024-01-16T10:30:09;99963.44;;;1.92;100.00
11985;BME280;6052;53.246;10.368;2024-01-16T10:32:41;99948.00;;;2.16;100.00
11985;BME280;6052;53.246;10.368;2024-01-16T10:35:12;99962.28;;;2.15;100.00
11985;BME280;6052;53.246;10.368;2024-01-16T10:37:43;99964.28;;;2.06;100.00
11985;BME280;6052;53.246;10.368;2024-01-16T10:40:17;99964.09;;;2.08;100.00
11985;BME280;6052;53.246;10.368;2024-01-16T10:43:01;99961.22;;;2.09;100.00
11985;BME280;6052;53.246;10.368;2024-01-16T10:45:31;99958.19;;;2.06;100.00
11985;BME280;6052;53.246;10.368;2024-01-16T10:48:02;99971.19;;;2.01;100.00
11985;BME280;6052;53.246;10.368;2024-01-16T10:50:34;99965.94;;;2.14;100.00
11985;BME280;6052;53.246;10.368;2024-01-16T10:53:05;99964.06;;;1.95;100.00
11985;BME280;6052;53.246;10.368;2024-01-16T10:55:42;99965.53;;;2.10;100.00
11985;BME280;6052;53.246;10.368;2024-01-16T10:58:16;99960.25;;;2.23;100.00
11985;BME280;6052;53.246;10.368;2024-01-16T11:00:50;99958.81;;;2.21;100.00
11985;BME280;6052;53.246;10.368;2024-01-16T11:03:26;99955.75;;;2.17;100.00
11985;BME280;6052;53.246;10.368;2024-01-16T11:05:59;99958.81;;;2.21;100.00
11985;BME280;6052;53.246;10.368;2024-01-16T11:08:31;99956.38;;;2.26;100.00
11985;BME280;6052;53.246;10.368;2024-01-16T11:11:02;99969.41;;;2.21;100.00
11985;BME280;6052;53.246;10.368;2024-01-16T11:13:36;99961.47;;;2.21;100.00
11985;BME280;6052;53.246;10.368;2024-01-16T11:16:06;99965.56;;;2.36;100.00
11985;BME280;6052;53.246;10.368;2024-01-16T11:18:37;99967.59;;;2.34;100.00
11985;BME280;6052;53.246;10.368;2024-01-16T11:21:09;99980.03;;;2.34;100.00
11985;BME280;6052;53.246;10.368;2024-01-16T11:23:44;99976.75;;;2.32;100.00
11985;BME280;6052;53.246;10.368;2024-01-16T11:26:25;99992.44;;;2.33;100.00
11985;BME280;6052;53.246;10.368;2024-01-16T11:28:59;99987.56;;;2.37;100.00
11985;BME280;6052;53.246;10.368;2024-01-16T11:31:30;99982.06;;;2.25;100.00
11985;BME280;6052;53.246;10.368;2024-01-16T11:34:01;99982.63;;;2.21;100.00
11985;BME280;6052;53.246;10.368;2024-01-16T11:36:49;99980.22;;;2.39;100.00
11985;BME280;6052;53.246;10.368;2024-01-16T11:39:22;99981.63;;;2.22;100.00
11985;BME280;6052;53.246;10.368;2024-01-16T11:41:53;99976.75;;;2.25;100.00
11985;BME280;6052;53.246;10.368;2024-01-16T11:44:40;99987.53;;;2.24;100.00
11985;BME280;6052;53.246;10.368;2024-01-16T11:47:16;99997.31;;;2.30;100.00
11985;BME280;6052;53.246;10.368;2024-01-16T11:49:47;99982.63;;;2.14;100.00
11985;BME280;6052;53.246;10.368;2024-01-16T11:52:39;99981.44;;;2.30;100.00
11985;BME280;6052;53.246;10.368;2024-01-16T11:55:27;99989.13;;;2.12;100.00
11985;BME280;6052;53.246;10.368;2024-01-16T11:58:25;99976.94;;;2.24;100.00
11985;BME280;6052;53.246;10.368;2024-01-16T12:01:07;99982.25;;;2.24;100.00
11985;BME280;6052;53.246;10.368;2024-01-16T12:03:38;99967.56;;;2.15;100.00
11985;BME280;6052;53.246;10.368;2024-01-16T12:06:08;99979.59;;;2.24;100.00
11985;BME280;6052;53.246;10.368;2024-01-16T12:08:38;99965.94;;;2.14;100.00
11985;BME280;6052;53.246;10.368;2024-01-16T12:11:07;99976.13;;;2.23;100.00
11985;BME280;6052;53.246;10.368;2024-01-16T12:13:37;99977.19;;;2.35;100.00
11985;BME280;6052;53.246;10.368;2024-01-16T12:16:09;99980.22;;;2.32;100.00
11985;BME280;6052;53.246;10.368;2024-01-16T12:18:39;99975.31;;;2.23;100.00
11985;BME280;6052;53.246;10.368;2024-01-16T12:21:13;99973.31;;;2.38;100.00
11985;BME280;6052;53.246;10.368;2024-01-16T12:23:43;99971.47;;;2.25;100.00
11985;BME280;6052;53.246;10.368;2024-01-16T12:26:26;99979.41;;;2.45;100.00
11985;BME280;6052;53.246;10.368;2024-01-16T12:28:56;99972.50;;;2.63;100.00
11985;BME280;6052;53.246;10.368;2024-01-16T12:31:29;99980.66;;;2.62;100.00
11985;BME280;6052;53.246;10.368;2024-01-16T12:34:05;99976.78;;;2.58;100.00
11985;BME280;6052;53.246;10.368;2024-01-16T12:36:36;99984.09;;;2.43;100.00
11985;BME280;6052;53.246;10.368;2024-01-16T12:39:07;99974.09;;;2.32;100.00
11985;BME280;6052;53.246;10.368;2024-01-16T12:41:42;99980.63;;;2.36;100.00
11985;BME280;6052;53.246;10.368;2024-01-16T12:44:13;99986.94;;;2.35;100.00
11985;BME280;6052;53.246;10.368;2024-01-16T12:46:53;99987.56;;;2.30;100.00
11985;BME280;6052;53.246;10.368;2024-01-16T12:49:24;99988.00;;;2.47;100.00
11985;BME280;6052;53.246;10.368;2024-01-16T12:52:15;99990.22;;;2.50;100.00
11985;BME280;6052;53.246;10.368;2024-01-16T12:54:45;99995.50;;;2.37;100.00
11985;BME280;6052;53.246;10.368;2024-01-16T12:57:19;99988.38;;;2.37;100.00
11985;BME280;6052;53.246;10.368;2024-01-16T12:59:49;99986.31;;;2.26;100.00
11985;BME280;6052;53.246;10.368;2024-01-16T13:02:23;99987.53;;;2.17;100.00
11985;BME280;6052;53.246;10.368;2024-01-16T13:04:56;99977.78;;;2.44;100.00
11985;BME280;6052;53.246;10.368;2024-01-16T13:07:29;99994.88;;;2.35;100.00
11985;BME280;6052;53.246;10.368;2024-01-16T13:10:07;99997.16;;;2.44;100.00
11985;BME280;6052;53.246;10.368;2024-01-16T13:12:39;99992.06;;;2.49;100.00
11985;BME280;6052;53.246;10.368;2024-01-16T13:15:08;99993.25;;;2.53;100.00
11985;BME280;6052;53.246;10.368;2024-01-16T13:17:47;99985.31;;;2.53;100.00
11985;BME280;6052;53.246;10.368;2024-01-16T13:20:17;99981.25;;;2.57;100.00